CheckWX is a tool to help pilots better visualize weather data.  It is not intended as a substitute for an official pre-flight weather briefing.

06:58:49 UTC

KHYI METAR
San Marcos Regional Airport
Austin, Texas, USA
Current

1 hour ago

KHYI 210556Z AUTO 13007KT 10SM OVC014 26/24 A3004 RMK AO2 SLP160 T02610239 10311 20256 403610256 50010
Observed
Sep-21 @ 05:56 UTC
Wind
  • 130° at 7 KTS
Visibility
10 SM
Flight Rules
MVFR
Cloud Levels
  • Overcast at 1,400' AGL
Temperature
26°C / 79°F
Dewpoint
24°C / 75°F
Humidity
89%
Altimeter
30.04" Hg
Pressure
1017.32 hPa
Previous

2 hours ago

KHYI 210456Z AUTO 13006KT 10SM OVC020 26/23 A3004 RMK AO2 SLP162 T02610233
Observed
Sep-21 @ 04:56 UTC
Wind
  • 130° at 6 KTS
Visibility
10 SM
Flight Rules
MVFR
Cloud Levels
  • Overcast at 2,000' AGL
Temperature
26°C / 79°F
Dewpoint
23°C / 73°F
Humidity
84%
Altimeter
30.04" Hg
Pressure
1017.32 hPa
Previous

3 hours ago

KHYI 210417Z AUTO 14006KT 10SM BKN020 26/23 A3004 RMK AO2
Observed
Sep-21 @ 04:17 UTC
Wind
  • 140° at 6 KTS
Visibility
10 SM
Flight Rules
MVFR
Cloud Levels
  • Broken at 2,000' AGL
Temperature
26°C / 79°F
Dewpoint
23°C / 73°F
Humidity
84%
Altimeter
30.04" Hg
Pressure
1017.32 hPa